Archival Weather

Chicago O'Hare International

Chicago, Illinois (KORD)

Report from: Tuesday, September 19, 2023 4:51 AM CDT
Current time: Friday, April 19, 2024 4:53 AM CDT

Current weather – Weather history – Daily summaries
Weather forecast

Temperature15.0°C (59.0°F)
Dew point11.1°C (52.0°F)
Winds 7 kts (3.6 m/s, 8.1 mph) South-Southeast (160°)
Visibility10 mi. (16.1 km)
Clouds Ceiling: Broken clouds 11,000 ft. (3,353 m)
Overcast 25,000 ft. (7,620 m)
Altimeter30.01 in.Hg (1016 mB)
Relative humidity78 %
Density altitude90 ft. (27 m)
Sea-level pressure101.6 kPa (1016 mB, 30.01 in.Hg)
Remarks Automated weather observing station with precipitation discriminator
Flight conditions Visual Meteorological Conditions
Raw dataKORD 190951Z 16007KT 10SM BKN110 OVC250 15/11 A3001 RMK AO2 SLP161 T01500111
An error has occurred. This application may no longer respond until reloaded. Reload 🗙